Gouraya — 7TFG — position and weather

sailwx.info

Track history (hours):
 
Tides and Currents Weather Stations Pressure Air Temp Water Temp Dewpoint Dewpoint Depression Visibility Wind Speed Wind Dir Waves Ship Positions

Gouraya

Last reported at 2017-Oct-17 06:00 UTC. Time now 2017-Oct-17 06:16 UTC.
Position N 42°38' E 008°31'.

Length 126 m; draft 6.1 m.

Type: Cargo ship. MMSI: 605066012.

Date/timePositionNaut miles runAvg speedWind from/ knotsBaromVisibWave heightAir tempDewpointWater temp
2017-Oct-17 06:00N 42°38' E 008°31'712.0
2017-Oct-17 05:28N 42°43' E 008°37'512.0
2017-Oct-17 05:00N 42°48' E 008°41'612.0
2017-Oct-17 04:29N 42°53' E 008°46'611.8
2017-Oct-17 03:58N 42°58' E 008°51'511.9
2017-Oct-17 03:30N 43°02' E 008°56'612.0
2017-Oct-17 03:00N 43°07' E 009°01'611.9
2017-Oct-17 02:30N 43°12' E 009°05'611.9
2017-Oct-17 02:00N 43°17' E 009°10'612.2
2017-Oct-17 01:30N 43°22' E 009°15'612.1
2017-Oct-17 01:00N 43°26' E 009°20'612.1
2017-Oct-17 00:30N 43°31' E 009°25'612.3
2017-Oct-17 00:00N 43°36' E 009°30'611.8
2017-Oct-16 23:30N 43°41' E 009°35'612.1
2017-Oct-16 23:00N 43°45' E 009°40'612.1
2017-Oct-16 22:30N 43°50' E 009°45'611.8
2017-Oct-16 22:00N 43°56' E 009°49'611.9
2017-Oct-16 21:30N 44°01' E 009°52'6 9.7
2017-Oct-16 20:56N 44°06' E 009°50'0 0.0
2017-Oct-16 20:23N 44°06' E 009°50'0 0.0
2017-Oct-16 19:56N 44°06' E 009°50'0 0.0
2017-Oct-16 19:26N 44°06' E 009°50'0 0.0
2017-Oct-16 18:59N 44°06' E 009°50'0 0.0
2017-Oct-16 18:29N 44°06' E 009°50'0 0.0
2017-Oct-16 17:59N 44°06' E 009°50'0 0.0
2017-Oct-16 17:14N 44°06' E 009°50'0 0.0
2017-Oct-16 16:59N 44°06' E 009°50'0 0.0
2017-Oct-16 16:29N 44°06' E 009°50'0 0.0
2017-Oct-16 15:59N 44°06' E 009°50'0 0.0
2017-Oct-16 15:26N 44°06' E 009°50'0 0.0
2017-Oct-16 14:53N 44°06' E 009°50'0 0.0
2017-Oct-16 13:53N 44°06' E 009°50'0 0.0
2017-Oct-16 13:29N 44°06' E 009°50'0 0.0
2017-Oct-16 12:59N 44°06' E 009°50'0 0.0
2017-Oct-16 12:29N 44°06' E 009°50'0 0.0
2017-Oct-16 11:59N 44°06' E 009°50'0 0.0
2017-Oct-16 11:23N 44°06' E 009°50'0 0.0
2017-Oct-16 10:56N 44°06' E 009°50'0 0.0
2017-Oct-16 10:26N 44°06' E 009°50'0 0.0
2017-Oct-16 09:56N 44°06' E 009°50'0 0.0
2017-Oct-16 09:29N 44°06' E 009°50'0 0.0
2017-Oct-16 08:59N 44°06' E 009°50'0 0.0
2017-Oct-16 08:29N 44°06' E 009°50'0 0.0
2017-Oct-16 07:59N 44°06' E 009°50'0 0.0
2017-Oct-16 07:29N 44°06' E 009°50'0 0.0
2017-Oct-16 06:56N 44°06' E 009°50'0 0.3
2017-Oct-16 06:30N 44°06' E 009°50'2 3.1
2017-Oct-16 06:00N 44°05' E 009°51'5 9.2
2017-Oct-16 05:30N 44°00' E 009°51'611.6
2017-Oct-16 05:00N 43°58' E 009°44'612.0
2017-Oct-16 04:30N 43°55' E 009°37'612.2
2017-Oct-16 04:00N 43°52' E 009°29'711.9
2017-Oct-16 03:26N 43°49' E 009°21'511.8
2017-Oct-16 03:00N 43°46' E 009°15'612.0
2017-Oct-16 02:30N 43°43' E 009°08'612.2
2017-Oct-16 02:00N 43°40' E 009°01'612.0
2017-Oct-16 01:30N 43°36' E 008°54'611.9
2017-Oct-16 01:00N 43°33' E 008°47'612.1
2017-Oct-16 00:30N 43°30' E 008°40'612.3
2017-Oct-16 00:00N 43°27' E 008°33'612.3
2017-Oct-15 23:30N 43°24' E 008°25'612.7
2017-Oct-15 22:59N 43°23' E 008°16'612.9
2017-Oct-15 22:30N 43°21' E 008°08'612.8
2017-Oct-15 22:00N 43°19' E 007°60'812.7
2017-Oct-15 21:23N 43°17' E 007°49'712.7
2017-Oct-15 20:51N 43°15' E 007°41'512.6
2017-Oct-15 20:29N 43°13' E 007°34'612.5
2017-Oct-15 20:00N 43°11' E 007°27'612.5
2017-Oct-15 19:30N 43°08' E 007°19'612.2
2017-Oct-15 18:59N 43°05' E 007°12'612.2
2017-Oct-15 18:30N 43°03' E 007°04'612.0
2017-Oct-15 18:00N 43°00' E 006°57'611.7
2017-Oct-15 17:28N 42°57' E 006°49'611.5
2017-Oct-15 16:56N 42°55' E 006°41'811.6
2017-Oct-15 16:14N 42°55' E 006°30'411.5
2017-Oct-15 15:54N 42°55' E 006°25'411.5
2017-Oct-15 15:30N 42°55' E 006°19'711.2
2017-Oct-15 14:53N 42°56' E 006°09'1111.5
2017-Oct-15 13:54N 42°59' E 005°55'911.7
2017-Oct-15 13:07N 43°02' E 005°43'211.9
2017-Oct-15 12:55N 43°03' E 005°40'1511.8
2017-Oct-15 11:37N 43°07' E 005°20'211.7
2017-Oct-15 11:27N 43°08' E 005°17'511.7
2017-Oct-15 11:00N 43°09' E 005°10'510.6
2017-Oct-15 10:30N 43°14' E 005°09'611.3
2017-Oct-15 10:00N 43°18' E 005°14'5 9.8
2017-Oct-15 09:30N 43°21' E 005°20'2 2.7
2017-Oct-15 08:55N 43°19' E 005°21'0 0.0
2017-Oct-15 08:28N 43°19' E 005°21'0 0.0
2017-Oct-15 07:58N 43°19' E 005°21'0 0.0
2017-Oct-15 07:28N 43°19' E 005°21'0 0.0
2017-Oct-15 06:58N 43°19' E 005°21'0 0.0
2017-Oct-15 06:28N 43°19' E 005°21'0 0.0
2017-Oct-15 05:55N 43°19' E 005°21'0 0.0
2017-Oct-15 05:28N 43°19' E 005°21'0 0.0
2017-Oct-15 04:58N 43°19' E 005°21'0 0.0
2017-Oct-15 04:28N 43°19' E 005°21'0 0.0
2017-Oct-15 03:58N 43°19' E 005°21'0 0.0
2017-Oct-15 03:28N 43°19' E 005°21'0 0.0
2017-Oct-15 02:58N 43°19' E 005°21'0 0.0
2017-Oct-15 02:28N 43°19' E 005°21'0 0.0
2017-Oct-15 01:58N 43°19' E 005°21'0 0.0
2017-Oct-15 01:28N 43°19' E 005°21'0 0.0
2017-Oct-15 00:58N 43°19' E 005°21'0 0.0
2017-Oct-15 00:28N 43°19' E 005°21'0 0.0
2017-Oct-14 23:58N 43°19' E 005°21'0 0.0
2017-Oct-14 23:28N 43°19' E 005°21'0 0.0
2017-Oct-14 22:58N 43°19' E 005°21'0 0.0
2017-Oct-14 22:28N 43°19' E 005°21'0 0.0
2017-Oct-14 21:58N 43°19' E 005°21'0 0.0
2017-Oct-14 21:28N 43°19' E 005°21'0 0.0
2017-Oct-14 20:58N 43°19' E 005°21'0 0.0
2017-Oct-14 20:28N 43°19' E 005°21'0 0.0
2017-Oct-14 19:58N 43°19' E 005°21'0 0.0
2017-Oct-14 19:28N 43°19' E 005°21'0 0.0
2017-Oct-14 18:58N 43°19' E 005°21'0 0.0
2017-Oct-14 18:28N 43°19' E 005°21'0 0.0
2017-Oct-14 17:58N 43°19' E 005°21'0 0.0
2017-Oct-14 17:28N 43°19' E 005°21'0 0.0
2017-Oct-14 16:58N 43°19' E 005°21'0 0.0
2017-Oct-14 16:28N 43°19' E 005°21'0 0.0
2017-Oct-14 15:55N 43°19' E 005°21'0 0.0
2017-Oct-14 15:28N 43°19' E 005°21'0 0.0
2017-Oct-14 14:58N 43°19' E 005°21'0 0.0
2017-Oct-14 14:28N 43°19' E 005°21'0 0.0
2017-Oct-14 13:58N 43°19' E 005°21'0 0.0
2017-Oct-14 13:28N 43°19' E 005°21'0 0.0
2017-Oct-14 12:55N 43°19' E 005°21'0 0.0
2017-Oct-14 12:28N 43°19' E 005°21'0 0.0
2017-Oct-14 11:58N 43°19' E 005°21'0 0.0
2017-Oct-14 11:28N 43°19' E 005°21'0 0.0
2017-Oct-14 10:58N 43°19' E 005°21'0 0.0
2017-Oct-14 10:28N 43°19' E 005°21'0 0.0
2017-Oct-14 09:58N 43°19' E 005°21'0 0.0
2017-Oct-14 09:28N 43°19' E 005°21'0 0.0
2017-Oct-14 08:58N 43°19' E 005°21'0 0.0
2017-Oct-14 08:28N 43°19' E 005°21'0 0.0
2017-Oct-14 07:58N 43°19' E 005°21'0 0.0
2017-Oct-14 07:28N 43°19' E 005°21'0 0.0
2017-Oct-14 06:58N 43°19' E 005°21'0 0.0
2017-Oct-14 06:28N 43°19' E 005°21'0 0.0
2017-Oct-14 05:58N 43°19' E 005°21'0 0.0
2017-Oct-14 05:28N 43°19' E 005°21'0 0.0
2017-Oct-14 04:58N 43°19' E 005°21'0 0.0
2017-Oct-14 04:28N 43°19' E 005°21'0 0.0
2017-Oct-14 03:58N 43°19' E 005°21'0 0.0
2017-Oct-14 03:28N 43°19' E 005°21'0 0.0
2017-Oct-14 02:58N 43°19' E 005°21'0 0.0
2017-Oct-14 02:28N 43°19' E 005°21'0 0.0
2017-Oct-14 01:58N 43°19' E 005°21'0 0.0
2017-Oct-14 01:28N 43°19' E 005°21'0 0.0
2017-Oct-14 00:58N 43°19' E 005°21'0 0.0
2017-Oct-14 00:22N 43°19' E 005°21'0 0.0
2017-Oct-13 23:58N 43°19' E 005°21'0 0.0
2017-Oct-13 23:28N 43°19' E 005°21'0 0.0
2017-Oct-13 22:58N 43°19' E 005°21'0 0.0
2017-Oct-13 22:28N 43°19' E 005°21'0 0.0
2017-Oct-13 21:58N 43°19' E 005°21'0 0.0
2017-Oct-13 21:22N 43°19' E 005°21'0 0.0
2017-Oct-13 20:58N 43°19' E 005°21'0 0.0
2017-Oct-13 20:25N 43°19' E 005°21'0 0.0
2017-Oct-13 19:58N 43°19' E 005°21'0 0.0
2017-Oct-13 19:28N 43°19' E 005°21'0 0.0
2017-Oct-13 18:58N 43°19' E 005°21'0 0.0
2017-Oct-13 18:28N 43°19' E 005°21'0 0.0
2017-Oct-13 17:58N 43°19' E 005°21'0 0.0
2017-Oct-13 17:28N 43°19' E 005°21'0 0.0
2017-Oct-13 16:58N 43°19' E 005°21'0 0.0
2017-Oct-13 16:28N 43°19' E 005°21'0 0.0
2017-Oct-13 15:58N 43°19' E 005°21'0 0.0
2017-Oct-13 15:28N 43°19' E 005°21'0 0.0
2017-Oct-13 15:00N 43°19' E 005°21'0 0.9
2017-Oct-13 14:30N 43°20' E 005°21'4 7.6
2017-Oct-13 14:00N 43°20' E 005°16'611.4
2017-Oct-13 13:30N 43°15' E 005°10'611.2
2017-Oct-13 13:00N 43°10' E 005°08'611.8
2017-Oct-13 12:30N 43°06' E 005°03'611.6
2017-Oct-13 12:00N 43°01' E 004°57'611.9
2017-Oct-13 11:30N 42°57' E 004°52'611.8
2017-Oct-13 11:00N 42°52' E 004°47'611.4
2017-Oct-13 10:30N 42°48' E 004°42'611.3
2017-Oct-13 10:00N 42°43' E 004°37'711.4
2017-Oct-13 09:25N 42°37' E 004°33'611.5
2017-Oct-13 08:54N 42°32' E 004°29'511.7
2017-Oct-13 08:29N 42°28' E 004°25'611.6
2017-Oct-13 08:00N 42°23' E 004°21'1111.5
2017-Oct-13 07:01N 42°14' E 004°13'011.3
2017-Oct-13 07:00N 42°14' E 004°13'611.7
2017-Oct-13 06:28N 42°09' E 004°08'511.7
2017-Oct-13 06:00N 42°04' E 004°04'611.7
2017-Oct-13 05:30N 41°59' E 003°59'611.4
2017-Oct-13 05:00N 41°55' E 003°55'711.5
2017-Oct-13 04:23N 41°49' E 003°49'511.6
2017-Oct-13 03:58N 41°45' E 003°45'811.7
2017-Oct-13 03:19N 41°39' E 003°38'511.8
2017-Oct-13 02:55N 41°36' E 003°34'512.0
2017-Oct-13 02:28N 41°32' E 003°30'611.7
2017-Oct-13 02:00N 41°27' E 003°25'1711.6
2017-Oct-13 00:33N 41°14' E 003°11'011.9
2017-Oct-13 00:30N 41°14' E 003°10'612.3
2017-Oct-13 00:00N 41°09' E 003°05'18712.3
2017-Oct-12 08:50N 38°38' E 000°43'412.0
2017-Oct-12 08:29N 38°34' E 000°41'612.2
2017-Oct-12 08:00N 38°28' E 000°38'611.9
2017-Oct-12 07:29N 38°22' E 000°35'612.2
2017-Oct-12 07:00N 38°17' E 000°32'612.6
2017-Oct-12 06:30N 38°11' E 000°30'812.8
2017-Oct-12 05:52N 38°03' E 000°26'512.7
2017-Oct-12 05:30N 37°59' E 000°24'612.6
2017-Oct-12 05:00N 37°53' E 000°21'612.5
2017-Oct-12 04:29N 37°47' E 000°18'712.5
2017-Oct-12 03:57N 37°41' E 000°16'512.2
2017-Oct-12 03:30N 37°36' E 000°13'611.8
2017-Oct-12 03:00N 37°30' E 000°12'612.2
2017-Oct-12 02:30N 37°24' E 000°10'612.3
2017-Oct-12 02:00N 37°18' E 000°08'612.0
2017-Oct-12 01:30N 37°12' E 000°05'611.8
2017-Oct-12 01:00N 37°07' E 000°03'611.9
2017-Oct-12 00:30N 37°01' E 000°01'611.9
2017-Oct-12 00:00N 36°56' W 000°02'611.8
2017-Oct-11 23:29N 36°50' W 000°04'1311.6
2017-Oct-11 22:22N 36°38' W 000°09'1311.5
2017-Oct-11 21:15N 36°25' W 000°15'611.6
2017-Oct-11 20:43N 36°20' W 000°17'311.5
2017-Oct-11 20:30N 36°17' W 000°19'611.3
2017-Oct-11 20:00N 36°12' W 000°21'611.2
2017-Oct-11 19:30N 36°07' W 000°24'611.4
2017-Oct-11 19:00N 36°02' W 000°26'611.7
2017-Oct-11 18:30N 35°57' W 000°30'611.3
2017-Oct-11 17:57N 35°51' W 000°34'511.3
2017-Oct-11 17:30N 35°46' W 000°36'4 5.8
2017-Oct-11 16:48N 35°43' W 000°38'  
2017-Oct-09 05:01N 36°41' E 001°11'012.5
2017-Oct-09 05:01N 36°41' E 001°11'1312.7
2017-Oct-09 03:58N 36°45' E 001°27'  
Track history (hours):
 
Tides and Currents Weather Stations Pressure Air Temp Water Temp Dewpoint Dewpoint Depression Visibility Wind Speed Wind Dir Waves Ship Positions

Gouraya

Last reported at 2017-Oct-17 06:00 UTC. Time now 2017-Oct-17 06:16 UTC.
Position N 42°38' E 008°31'.

Length 126 m; draft 6.1 m.

Type: Cargo ship. MMSI: 605066012.

Date/timePositionNaut miles runAvg speedWind from/ knotsBaromVisibWave heightAir tempDewpointWater temp
2017-Oct-17 06:00N 42°38' E 008°31'712.0
2017-Oct-17 05:28N 42°43' E 008°37'512.0
2017-Oct-17 05:00N 42°48' E 008°41'612.0
2017-Oct-17 04:29N 42°53' E 008°46'611.8
2017-Oct-17 03:58N 42°58' E 008°51'511.9
2017-Oct-17 03:30N 43°02' E 008°56'612.0
2017-Oct-17 03:00N 43°07' E 009°01'611.9
2017-Oct-17 02:30N 43°12' E 009°05'611.9
2017-Oct-17 02:00N 43°17' E 009°10'612.2
2017-Oct-17 01:30N 43°22' E 009°15'612.1
2017-Oct-17 01:00N 43°26' E 009°20'612.1
2017-Oct-17 00:30N 43°31' E 009°25'612.3
2017-Oct-17 00:00N 43°36' E 009°30'611.8
2017-Oct-16 23:30N 43°41' E 009°35'612.1
2017-Oct-16 23:00N 43°45' E 009°40'612.1
2017-Oct-16 22:30N 43°50' E 009°45'611.8
2017-Oct-16 22:00N 43°56' E 009°49'611.9
2017-Oct-16 21:30N 44°01' E 009°52'6 9.7
2017-Oct-16 20:56N 44°06' E 009°50'0 0.0
2017-Oct-16 20:23N 44°06' E 009°50'0 0.0
2017-Oct-16 19:56N 44°06' E 009°50'0 0.0
2017-Oct-16 19:26N 44°06' E 009°50'0 0.0
2017-Oct-16 18:59N 44°06' E 009°50'0 0.0
2017-Oct-16 18:29N 44°06' E 009°50'0 0.0
2017-Oct-16 17:59N 44°06' E 009°50'0 0.0
2017-Oct-16 17:14N 44°06' E 009°50'0 0.0
2017-Oct-16 16:59N 44°06' E 009°50'0 0.0
2017-Oct-16 16:29N 44°06' E 009°50'0 0.0
2017-Oct-16 15:59N 44°06' E 009°50'0 0.0
2017-Oct-16 15:26N 44°06' E 009°50'0 0.0
2017-Oct-16 14:53N 44°06' E 009°50'0 0.0
2017-Oct-16 13:53N 44°06' E 009°50'0 0.0
2017-Oct-16 13:29N 44°06' E 009°50'0 0.0
2017-Oct-16 12:59N 44°06' E 009°50'0 0.0
2017-Oct-16 12:29N 44°06' E 009°50'0 0.0
2017-Oct-16 11:59N 44°06' E 009°50'0 0.0
2017-Oct-16 11:23N 44°06' E 009°50'0 0.0
2017-Oct-16 10:56N 44°06' E 009°50'0 0.0
2017-Oct-16 10:26N 44°06' E 009°50'0 0.0
2017-Oct-16 09:56N 44°06' E 009°50'0 0.0
2017-Oct-16 09:29N 44°06' E 009°50'0 0.0
2017-Oct-16 08:59N 44°06' E 009°50'0 0.0
2017-Oct-16 08:29N 44°06' E 009°50'0 0.0
2017-Oct-16 07:59N 44°06' E 009°50'0 0.0
2017-Oct-16 07:29N 44°06' E 009°50'0 0.0
2017-Oct-16 06:56N 44°06' E 009°50'0 0.3
2017-Oct-16 06:30N 44°06' E 009°50'2 3.1
2017-Oct-16 06:00N 44°05' E 009°51'5 9.2
2017-Oct-16 05:30N 44°00' E 009°51'611.6
2017-Oct-16 05:00N 43°58' E 009°44'612.0
2017-Oct-16 04:30N 43°55' E 009°37'612.2
2017-Oct-16 04:00N 43°52' E 009°29'711.9
2017-Oct-16 03:26N 43°49' E 009°21'511.8
2017-Oct-16 03:00N 43°46' E 009°15'612.0
2017-Oct-16 02:30N 43°43' E 009°08'612.2
2017-Oct-16 02:00N 43°40' E 009°01'612.0
2017-Oct-16 01:30N 43°36' E 008°54'611.9
2017-Oct-16 01:00N 43°33' E 008°47'612.1
2017-Oct-16 00:30N 43°30' E 008°40'612.3
2017-Oct-16 00:00N 43°27' E 008°33'612.3
2017-Oct-15 23:30N 43°24' E 008°25'612.7
2017-Oct-15 22:59N 43°23' E 008°16'612.9
2017-Oct-15 22:30N 43°21' E 008°08'612.8
2017-Oct-15 22:00N 43°19' E 007°60'812.7
2017-Oct-15 21:23N 43°17' E 007°49'712.7
2017-Oct-15 20:51N 43°15' E 007°41'512.6
2017-Oct-15 20:29N 43°13' E 007°34'612.5
2017-Oct-15 20:00N 43°11' E 007°27'612.5
2017-Oct-15 19:30N 43°08' E 007°19'612.2
2017-Oct-15 18:59N 43°05' E 007°12'612.2
2017-Oct-15 18:30N 43°03' E 007°04'612.0
2017-Oct-15 18:00N 43°00' E 006°57'611.7
2017-Oct-15 17:28N 42°57' E 006°49'611.5
2017-Oct-15 16:56N 42°55' E 006°41'811.6
2017-Oct-15 16:14N 42°55' E 006°30'411.5
2017-Oct-15 15:54N 42°55' E 006°25'411.5
2017-Oct-15 15:30N 42°55' E 006°19'711.2
2017-Oct-15 14:53N 42°56' E 006°09'1111.5
2017-Oct-15 13:54N 42°59' E 005°55'911.7
2017-Oct-15 13:07N 43°02' E 005°43'211.9
2017-Oct-15 12:55N 43°03' E 005°40'1511.8
2017-Oct-15 11:37N 43°07' E 005°20'211.7
2017-Oct-15 11:27N 43°08' E 005°17'511.7
2017-Oct-15 11:00N 43°09' E 005°10'510.6
2017-Oct-15 10:30N 43°14' E 005°09'611.3
2017-Oct-15 10:00N 43°18' E 005°14'5 9.8
2017-Oct-15 09:30N 43°21' E 005°20'2 2.7
2017-Oct-15 08:55N 43°19' E 005°21'0 0.0
2017-Oct-15 08:28N 43°19' E 005°21'0 0.0
2017-Oct-15 07:58N 43°19' E 005°21'0 0.0
2017-Oct-15 07:28N 43°19' E 005°21'0 0.0
2017-Oct-15 06:58N 43°19' E 005°21'0 0.0
2017-Oct-15 06:28N 43°19' E 005°21'0 0.0
2017-Oct-15 05:55N 43°19' E 005°21'0 0.0
2017-Oct-15 05:28N 43°19' E 005°21'0 0.0
2017-Oct-15 04:58N 43°19' E 005°21'0 0.0
2017-Oct-15 04:28N 43°19' E 005°21'0 0.0
2017-Oct-15 03:58N 43°19' E 005°21'0 0.0
2017-Oct-15 03:28N 43°19' E 005°21'0 0.0
2017-Oct-15 02:58N 43°19' E 005°21'0 0.0
2017-Oct-15 02:28N 43°19' E 005°21'0 0.0
2017-Oct-15 01:58N 43°19' E 005°21'0 0.0
2017-Oct-15 01:28N 43°19' E 005°21'0 0.0
2017-Oct-15 00:58N 43°19' E 005°21'0 0.0
2017-Oct-15 00:28N 43°19' E 005°21'0 0.0
2017-Oct-14 23:58N 43°19' E 005°21'0 0.0
2017-Oct-14 23:28N 43°19' E 005°21'0 0.0
2017-Oct-14 22:58N 43°19' E 005°21'0 0.0
2017-Oct-14 22:28N 43°19' E 005°21'0 0.0
2017-Oct-14 21:58N 43°19' E 005°21'0 0.0
2017-Oct-14 21:28N 43°19' E 005°21'0 0.0
2017-Oct-14 20:58N 43°19' E 005°21'0 0.0
2017-Oct-14 20:28N 43°19' E 005°21'0 0.0
2017-Oct-14 19:58N 43°19' E 005°21'0 0.0
2017-Oct-14 19:28N 43°19' E 005°21'0 0.0
2017-Oct-14 18:58N 43°19' E 005°21'0 0.0
2017-Oct-14 18:28N 43°19' E 005°21'0 0.0
2017-Oct-14 17:58N 43°19' E 005°21'0 0.0
2017-Oct-14 17:28N 43°19' E 005°21'0 0.0
2017-Oct-14 16:58N 43°19' E 005°21'0 0.0
2017-Oct-14 16:28N 43°19' E 005°21'0 0.0
2017-Oct-14 15:55N 43°19' E 005°21'0 0.0
2017-Oct-14 15:28N 43°19' E 005°21'0 0.0
2017-Oct-14 14:58N 43°19' E 005°21'0 0.0
2017-Oct-14 14:28N 43°19' E 005°21'0 0.0
2017-Oct-14 13:58N 43°19' E 005°21'0 0.0
2017-Oct-14 13:28N 43°19' E 005°21'0 0.0
2017-Oct-14 12:55N 43°19' E 005°21'0 0.0
2017-Oct-14 12:28N 43°19' E 005°21'0 0.0
2017-Oct-14 11:58N 43°19' E 005°21'0 0.0
2017-Oct-14 11:28N 43°19' E 005°21'0 0.0
2017-Oct-14 10:58N 43°19' E 005°21'0 0.0
2017-Oct-14 10:28N 43°19' E 005°21'0 0.0
2017-Oct-14 09:58N 43°19' E 005°21'0 0.0
2017-Oct-14 09:28N 43°19' E 005°21'0 0.0
2017-Oct-14 08:58N 43°19' E 005°21'0 0.0
2017-Oct-14 08:28N 43°19' E 005°21'0 0.0
2017-Oct-14 07:58N 43°19' E 005°21'0 0.0
2017-Oct-14 07:28N 43°19' E 005°21'0 0.0
2017-Oct-14 06:58N 43°19' E 005°21'0 0.0
2017-Oct-14 06:28N 43°19' E 005°21'0 0.0
2017-Oct-14 05:58N 43°19' E 005°21'0 0.0
2017-Oct-14 05:28N 43°19' E 005°21'0 0.0
2017-Oct-14 04:58N 43°19' E 005°21'0 0.0
2017-Oct-14 04:28N 43°19' E 005°21'0 0.0
2017-Oct-14 03:58N 43°19' E 005°21'0 0.0
2017-Oct-14 03:28N 43°19' E 005°21'0 0.0
2017-Oct-14 02:58N 43°19' E 005°21'0 0.0
2017-Oct-14 02:28N 43°19' E 005°21'0 0.0
2017-Oct-14 01:58N 43°19' E 005°21'0 0.0
2017-Oct-14 01:28N 43°19' E 005°21'0 0.0
2017-Oct-14 00:58N 43°19' E 005°21'0 0.0
2017-Oct-14 00:22N 43°19' E 005°21'0 0.0
2017-Oct-13 23:58N 43°19' E 005°21'0 0.0
2017-Oct-13 23:28N 43°19' E 005°21'0 0.0
2017-Oct-13 22:58N 43°19' E 005°21'0 0.0
2017-Oct-13 22:28N 43°19' E 005°21'0 0.0
2017-Oct-13 21:58N 43°19' E 005°21'0 0.0
2017-Oct-13 21:22N 43°19' E 005°21'0 0.0
2017-Oct-13 20:58N 43°19' E 005°21'0 0.0
2017-Oct-13 20:25N 43°19' E 005°21'0 0.0
2017-Oct-13 19:58N 43°19' E 005°21'0 0.0
2017-Oct-13 19:28N 43°19' E 005°21'0 0.0
2017-Oct-13 18:58N 43°19' E 005°21'0 0.0
2017-Oct-13 18:28N 43°19' E 005°21'0 0.0
2017-Oct-13 17:58N 43°19' E 005°21'0 0.0
2017-Oct-13 17:28N 43°19' E 005°21'0 0.0
2017-Oct-13 16:58N 43°19' E 005°21'0 0.0
2017-Oct-13 16:28N 43°19' E 005°21'0 0.0
2017-Oct-13 15:58N 43°19' E 005°21'0 0.0
2017-Oct-13 15:28N 43°19' E 005°21'0 0.0
2017-Oct-13 15:00N 43°19' E 005°21'0 0.9
2017-Oct-13 14:30N 43°20' E 005°21'4 7.6
2017-Oct-13 14:00N 43°20' E 005°16'611.4
2017-Oct-13 13:30N 43°15' E 005°10'611.2
2017-Oct-13 13:00N 43°10' E 005°08'611.8
2017-Oct-13 12:30N 43°06' E 005°03'611.6
2017-Oct-13 12:00N 43°01' E 004°57'611.9
2017-Oct-13 11:30N 42°57' E 004°52'611.8
2017-Oct-13 11:00N 42°52' E 004°47'611.4
2017-Oct-13 10:30N 42°48' E 004°42'611.3
2017-Oct-13 10:00N 42°43' E 004°37'711.4
2017-Oct-13 09:25N 42°37' E 004°33'611.5
2017-Oct-13 08:54N 42°32' E 004°29'511.7
2017-Oct-13 08:29N 42°28' E 004°25'611.6
2017-Oct-13 08:00N 42°23' E 004°21'1111.5
2017-Oct-13 07:01N 42°14' E 004°13'011.3
2017-Oct-13 07:00N 42°14' E 004°13'611.7
2017-Oct-13 06:28N 42°09' E 004°08'511.7
2017-Oct-13 06:00N 42°04' E 004°04'611.7
2017-Oct-13 05:30N 41°59' E 003°59'611.4
2017-Oct-13 05:00N 41°55' E 003°55'711.5
2017-Oct-13 04:23N 41°49' E 003°49'511.6
2017-Oct-13 03:58N 41°45' E 003°45'811.7
2017-Oct-13 03:19N 41°39' E 003°38'511.8
2017-Oct-13 02:55N 41°36' E 003°34'512.0
2017-Oct-13 02:28N 41°32' E 003°30'611.7
2017-Oct-13 02:00N 41°27' E 003°25'1711.6
2017-Oct-13 00:33N 41°14' E 003°11'011.9
2017-Oct-13 00:30N 41°14' E 003°10'612.3
2017-Oct-13 00:00N 41°09' E 003°05'18712.3
2017-Oct-12 08:50N 38°38' E 000°43'412.0
2017-Oct-12 08:29N 38°34' E 000°41'612.2
2017-Oct-12 08:00N 38°28' E 000°38'611.9
2017-Oct-12 07:29N 38°22' E 000°35'612.2
2017-Oct-12 07:00N 38°17' E 000°32'612.6
2017-Oct-12 06:30N 38°11' E 000°30'812.8
2017-Oct-12 05:52N 38°03' E 000°26'512.7
2017-Oct-12 05:30N 37°59' E 000°24'612.6
2017-Oct-12 05:00N 37°53' E 000°21'612.5
2017-Oct-12 04:29N 37°47' E 000°18'712.5
2017-Oct-12 03:57N 37°41' E 000°16'512.2
2017-Oct-12 03:30N 37°36' E 000°13'611.8
2017-Oct-12 03:00N 37°30' E 000°12'612.2
2017-Oct-12 02:30N 37°24' E 000°10'612.3
2017-Oct-12 02:00N 37°18' E 000°08'612.0
2017-Oct-12 01:30N 37°12' E 000°05'611.8
2017-Oct-12 01:00N 37°07' E 000°03'611.9
2017-Oct-12 00:30N 37°01' E 000°01'611.9
2017-Oct-12 00:00N 36°56' W 000°02'611.8
2017-Oct-11 23:29N 36°50' W 000°04'1311.6
2017-Oct-11 22:22N 36°38' W 000°09'1311.5
2017-Oct-11 21:15N 36°25' W 000°15'611.6
2017-Oct-11 20:43N 36°20' W 000°17'311.5
2017-Oct-11 20:30N 36°17' W 000°19'611.3
2017-Oct-11 20:00N 36°12' W 000°21'611.2
2017-Oct-11 19:30N 36°07' W 000°24'611.4
2017-Oct-11 19:00N 36°02' W 000°26'611.7
2017-Oct-11 18:30N 35°57' W 000°30'611.3
2017-Oct-11 17:57N 35°51' W 000°34'511.3
2017-Oct-11 17:30N 35°46' W 000°36'4 5.8
2017-Oct-11 16:48N 35°43' W 000°38'  
2017-Oct-09 05:01N 36°41' E 001°11'012.5
2017-Oct-09 05:01N 36°41' E 001°11'1312.7
2017-Oct-09 03:58N 36°45' E 001°27'  

Dump ship's entire track history